sensor_id;sensor_type;location;lat;lon;timestamp;P1;durP1;ratioP1;P2;durP2;ratioP2
56752;SDS011;42627;42.646;23.642;2023-02-17T00:00:05;9.77;;;4.38;;
56752;SDS011;42627;42.646;23.642;2023-02-17T00:02:06;14.57;;;5.53;;
56752;SDS011;42627;42.646;23.642;2023-02-17T00:04:07;15.80;;;7.13;;
56752;SDS011;42627;42.646;23.642;2023-02-17T00:06:09;20.58;;;7.03;;
56752;SDS011;42627;42.646;23.642;2023-02-17T00:08:10;18.95;;;5.00;;
56752;SDS011;42627;42.646;23.642;2023-02-17T00:10:11;18.08;;;7.63;;
56752;SDS011;42627;42.646;23.642;2023-02-17T00:12:12;13.68;;;5.97;;
56752;SDS011;42627;42.646;23.642;2023-02-17T00:14:14;14.27;;;5.40;;
56752;SDS011;42627;42.646;23.642;2023-02-17T00:16:16;12.63;;;5.97;;
56752;SDS011;42627;42.646;23.642;2023-02-17T00:18:18;12.23;;;5.45;;
56752;SDS011;42627;42.646;23.642;2023-02-17T00:20:28;7.75;;;3.70;;
56752;SDS011;42627;42.646;23.642;2023-02-17T00:22:29;9.68;;;5.53;;
56752;SDS011;42627;42.646;23.642;2023-02-17T00:24:31;10.35;;;4.80;;
56752;SDS011;42627;42.646;23.642;2023-02-17T00:26:32;10.93;;;6.40;;
56752;SDS011;42627;42.646;23.642;2023-02-17T00:28:33;12.52;;;5.28;;
56752;SDS011;42627;42.646;23.642;2023-02-17T00:30:35;14.02;;;5.75;;
56752;SDS011;42627;42.646;23.642;2023-02-17T00:32:38;15.27;;;6.22;;
56752;SDS011;42627;42.646;23.642;2023-02-17T00:34:39;14.07;;;7.25;;
56752;SDS011;42627;42.646;23.642;2023-02-17T00:36:40;11.48;;;5.28;;
56752;SDS011;42627;42.646;23.642;2023-02-17T00:38:41;13.00;;;6.05;;
56752;SDS011;42627;42.646;23.642;2023-02-17T00:40:42;13.77;;;4.25;;
56752;SDS011;42627;42.646;23.642;2023-02-17T00:42:44;16.67;;;5.85;;
56752;SDS011;42627;42.646;23.642;2023-02-17T00:44:45;16.33;;;6.82;;
56752;SDS011;42627;42.646;23.642;2023-02-17T00:46:46;20.65;;;5.82;;
56752;SDS011;42627;42.646;23.642;2023-02-17T00:48:47;11.85;;;6.30;;
56752;SDS011;42627;42.646;23.642;2023-02-17T00:50:48;15.00;;;5.85;;
56752;SDS011;42627;42.646;23.642;2023-02-17T00:52:49;13.38;;;6.47;;
56752;SDS011;42627;42.646;23.642;2023-02-17T00:54:50;23.92;;;8.90;;
56752;SDS011;42627;42.646;23.642;2023-02-17T00:56:51;18.55;;;6.95;;
56752;SDS011;42627;42.646;23.642;2023-02-17T00:58:52;13.77;;;6.78;;
56752;SDS011;42627;42.646;23.642;2023-02-17T01:00:56;18.33;;;6.38;;
56752;SDS011;42627;42.646;23.642;2023-02-17T01:02:57;9.18;;;5.18;;
56752;SDS011;42627;42.646;23.642;2023-02-17T01:04:59;17.30;;;7.05;;
56752;SDS011;42627;42.646;23.642;2023-02-17T01:07:00;17.17;;;6.97;;
56752;SDS011;42627;42.646;23.642;2023-02-17T01:09:01;6.25;;;4.18;;
56752;SDS011;42627;42.646;23.642;2023-02-17T01:11:03;9.73;;;4.15;;
56752;SDS011;42627;42.646;23.642;2023-02-17T01:13:04;9.82;;;5.38;;
56752;SDS011;42627;42.646;23.642;2023-02-17T01:15:05;13.60;;;5.55;;
56752;SDS011;42627;42.646;23.642;2023-02-17T01:17:06;7.43;;;3.85;;
56752;SDS011;42627;42.646;23.642;2023-02-17T01:19:08;11.68;;;4.32;;
56752;SDS011;42627;42.646;23.642;2023-02-17T01:21:23;10.88;;;4.93;;
56752;SDS011;42627;42.646;23.642;2023-02-17T01:23:24;11.70;;;5.13;;
56752;SDS011;42627;42.646;23.642;2023-02-17T01:25:25;21.55;;;8.20;;
56752;SDS011;42627;42.646;23.642;2023-02-17T01:27:26;18.48;;;7.50;;
56752;SDS011;42627;42.646;23.642;2023-02-17T01:29:27;18.52;;;9.88;;
56752;SDS011;42627;42.646;23.642;2023-02-17T01:31:29;24.67;;;8.93;;
56752;SDS011;42627;42.646;23.642;2023-02-17T01:33:30;15.90;;;7.75;;
56752;SDS011;42627;42.646;23.642;2023-02-17T01:35:32;15.65;;;4.88;;
56752;SDS011;42627;42.646;23.642;2023-02-17T01:37:33;11.68;;;5.28;;
56752;SDS011;42627;42.646;23.642;2023-02-17T01:39:34;10.05;;;5.25;;
56752;SDS011;42627;42.646;23.642;2023-02-17T01:41:35;13.77;;;5.80;;
56752;SDS011;42627;42.646;23.642;2023-02-17T01:43:36;14.75;;;7.50;;
56752;SDS011;42627;42.646;23.642;2023-02-17T01:45:39;13.30;;;5.03;;
56752;SDS011;42627;42.646;23.642;2023-02-17T01:47:41;13.48;;;6.05;;
56752;SDS011;42627;42.646;23.642;2023-02-17T01:49:42;9.43;;;4.28;;
56752;SDS011;42627;42.646;23.642;2023-02-17T01:51:44;17.30;;;6.05;;
56752;SDS011;42627;42.646;23.642;2023-02-17T01:53:47;8.80;;;4.60;;
56752;SDS011;42627;42.646;23.642;2023-02-17T01:55:49;10.40;;;4.40;;
56752;SDS011;42627;42.646;23.642;2023-02-17T01:57:52;14.93;;;5.22;;
56752;SDS011;42627;42.646;23.642;2023-02-17T01:59:56;17.33;;;7.28;;
56752;SDS011;42627;42.646;23.642;2023-02-17T02:01:58;10.15;;;5.88;;
56752;SDS011;42627;42.646;23.642;2023-02-17T02:04:01;19.83;;;7.55;;
56752;SDS011;42627;42.646;23.642;2023-02-17T02:06:04;21.02;;;8.00;;
56752;SDS011;42627;42.646;23.642;2023-02-17T02:08:07;17.17;;;6.38;;
56752;SDS011;42627;42.646;23.642;2023-02-17T02:10:09;13.98;;;7.75;;
56752;SDS011;42627;42.646;23.642;2023-02-17T02:12:18;18.92;;;8.52;;
56752;SDS011;42627;42.646;23.642;2023-02-17T02:14:19;16.05;;;8.18;;
56752;SDS011;42627;42.646;23.642;2023-02-17T02:16:28;19.67;;;9.13;;
56752;SDS011;42627;42.646;23.642;2023-02-17T02:27:45;17.13;;;8.43;;
56752;SDS011;42627;42.646;23.642;2023-02-17T02:30:09;14.02;;;5.97;;
56752;SDS011;42627;42.646;23.642;2023-02-17T02:32:22;16.33;;;7.95;;
56752;SDS011;42627;42.646;23.642;2023-02-17T02:34:26;10.73;;;5.50;;
56752;SDS011;42627;42.646;23.642;2023-02-17T02:36:35;13.68;;;5.40;;
56752;SDS011;42627;42.646;23.642;2023-02-17T02:38:41;11.27;;;4.80;;
56752;SDS011;42627;42.646;23.642;2023-02-17T02:40:46;10.18;;;4.32;;
56752;SDS011;42627;42.646;23.642;2023-02-17T02:42:48;11.60;;;5.40;;
56752;SDS011;42627;42.646;23.642;2023-02-17T02:44:50;12.82;;;6.63;;
56752;SDS011;42627;42.646;23.642;2023-02-17T02:46:55;14.73;;;6.43;;
56752;SDS011;42627;42.646;23.642;2023-02-17T02:48:56;13.40;;;5.90;;
56752;SDS011;42627;42.646;23.642;2023-02-17T02:51:04;11.13;;;4.82;;
56752;SDS011;42627;42.646;23.642;2023-02-17T03:01:51;25.23;;;8.07;;
56752;SDS011;42627;42.646;23.642;2023-02-17T03:07:59;14.35;;;6.00;;
56752;SDS011;42627;42.646;23.642;2023-02-17T03:10:02;10.35;;;6.50;;
56752;SDS011;42627;42.646;23.642;2023-02-17T03:12:03;46.95;;;16.48;;
56752;SDS011;42627;42.646;23.642;2023-02-17T03:14:05;34.17;;;12.95;;
56752;SDS011;42627;42.646;23.642;2023-02-17T03:16:09;13.85;;;7.97;;
56752;SDS011;42627;42.646;23.642;2023-02-17T03:18:13;12.05;;;6.00;;
56752;SDS011;42627;42.646;23.642;2023-02-17T03:20:14;51.83;;;17.67;;
56752;SDS011;42627;42.646;23.642;2023-02-17T03:22:20;39.28;;;13.15;;
56752;SDS011;42627;42.646;23.642;2023-02-17T03:24:21;20.90;;;8.95;;
56752;SDS011;42627;42.646;23.642;2023-02-17T03:26:22;17.95;;;8.20;;
56752;SDS011;42627;42.646;23.642;2023-02-17T03:28:23;16.42;;;6.80;;
56752;SDS011;42627;42.646;23.642;2023-02-17T03:30:24;17.25;;;9.45;;
56752;SDS011;42627;42.646;23.642;2023-02-17T03:32:25;14.98;;;7.80;;
56752;SDS011;42627;42.646;23.642;2023-02-17T03:34:26;7.45;;;5.10;;
56752;SDS011;42627;42.646;23.642;2023-02-17T03:36:27;18.20;;;5.68;;
56752;SDS011;42627;42.646;23.642;2023-02-17T03:38:29;14.93;;;5.97;;
56752;SDS011;42627;42.646;23.642;2023-02-17T03:40:30;14.82;;;5.22;;
56752;SDS011;42627;42.646;23.642;2023-02-17T03:42:31;20.10;;;7.22;;
56752;SDS011;42627;42.646;23.642;2023-02-17T03:44:32;16.42;;;5.68;;
56752;SDS011;42627;42.646;23.642;2023-02-17T03:46:33;10.82;;;4.55;;
56752;SDS011;42627;42.646;23.642;2023-02-17T03:48:34;9.57;;;4.82;;
56752;SDS011;42627;42.646;23.642;2023-02-17T03:50:35;9.07;;;3.83;;
56752;SDS011;42627;42.646;23.642;2023-02-17T03:52:36;4.85;;;3.40;;
56752;SDS011;42627;42.646;23.642;2023-02-17T03:54:37;7.18;;;4.25;;
56752;SDS011;42627;42.646;23.642;2023-02-17T03:56:38;10.73;;;4.50;;
56752;SDS011;42627;42.646;23.642;2023-02-17T03:58:39;11.57;;;4.88;;
56752;SDS011;42627;42.646;23.642;2023-02-17T04:00:40;6.28;;;3.63;;
56752;SDS011;42627;42.646;23.642;2023-02-17T04:02:41;18.48;;;4.60;;
56752;SDS011;42627;42.646;23.642;2023-02-17T04:04:42;13.77;;;5.53;;
56752;SDS011;42627;42.646;23.642;2023-02-17T04:06:43;9.18;;;4.65;;
56752;SDS011;42627;42.646;23.642;2023-02-17T04:08:44;11.63;;;5.82;;
56752;SDS011;42627;42.646;23.642;2023-02-17T04:10:45;9.00;;;4.95;;
56752;SDS011;42627;42.646;23.642;2023-02-17T04:12:46;13.80;;;8.43;;
56752;SDS011;42627;42.646;23.642;2023-02-17T04:14:47;10.43;;;6.47;;
56752;SDS011;42627;42.646;23.642;2023-02-17T04:16:48;19.17;;;6.65;;
56752;SDS011;42627;42.646;23.642;2023-02-17T04:18:49;13.13;;;6.43;;
56752;SDS011;42627;42.646;23.642;2023-02-17T04:20:50;14.25;;;6.28;;
56752;SDS011;42627;42.646;23.642;2023-02-17T04:22:51;11.57;;;4.63;;
56752;SDS011;42627;42.646;23.642;2023-02-17T04:24:52;11.95;;;5.30;;
56752;SDS011;42627;42.646;23.642;2023-02-17T04:26:53;21.40;;;9.23;;
56752;SDS011;42627;42.646;23.642;2023-02-17T04:28:54;32.55;;;7.57;;
56752;SDS011;42627;42.646;23.642;2023-02-17T04:30:56;12.82;;;7.65;;
56752;SDS011;42627;42.646;23.642;2023-02-17T04:32:57;18.60;;;8.18;;
56752;SDS011;42627;42.646;23.642;2023-02-17T04:34:58;18.48;;;7.60;;
56752;SDS011;42627;42.646;23.642;2023-02-17T04:36:59;21.75;;;11.00;;
56752;SDS011;42627;42.646;23.642;2023-02-17T04:39:00;47.42;;;19.95;;
56752;SDS011;42627;42.646;23.642;2023-02-17T04:41:02;40.00;;;12.95;;
56752;SDS011;42627;42.646;23.642;2023-02-17T04:43:03;35.60;;;14.10;;
56752;SDS011;42627;42.646;23.642;2023-02-17T04:45:04;32.47;;;15.35;;
56752;SDS011;42627;42.646;23.642;2023-02-17T04:47:05;21.80;;;9.43;;
56752;SDS011;42627;42.646;23.642;2023-02-17T04:49:07;15.23;;;7.32;;
56752;SDS011;42627;42.646;23.642;2023-02-17T04:51:07;16.60;;;9.48;;
56752;SDS011;42627;42.646;23.642;2023-02-17T04:53:09;12.23;;;8.07;;
56752;SDS011;42627;42.646;23.642;2023-02-17T04:55:10;20.83;;;9.50;;
56752;SDS011;42627;42.646;23.642;2023-02-17T04:57:11;19.48;;;7.97;;
56752;SDS011;42627;42.646;23.642;2023-02-17T04:59:12;20.83;;;8.52;;
56752;SDS011;42627;42.646;23.642;2023-02-17T05:01:13;19.20;;;9.15;;
56752;SDS011;42627;42.646;23.642;2023-02-17T05:03:14;22.95;;;9.15;;
56752;SDS011;42627;42.646;23.642;2023-02-17T05:05:15;18.98;;;7.43;;
56752;SDS011;42627;42.646;23.642;2023-02-17T05:07:23;30.98;;;9.80;;
56752;SDS011;42627;42.646;23.642;2023-02-17T05:11:35;15.73;;;8.40;;
56752;SDS011;42627;42.646;23.642;2023-02-17T05:13:39;18.58;;;8.60;;
56752;SDS011;42627;42.646;23.642;2023-02-17T05:15:46;16.50;;;7.15;;
56752;SDS011;42627;42.646;23.642;2023-02-17T05:17:49;20.40;;;6.72;;
56752;SDS011;42627;42.646;23.642;2023-02-17T05:19:50;20.35;;;7.88;;
56752;SDS011;42627;42.646;23.642;2023-02-17T05:24:18;15.43;;;7.18;;
56752;SDS011;42627;42.646;23.642;2023-02-17T05:26:19;24.23;;;9.57;;
56752;SDS011;42627;42.646;23.642;2023-02-17T05:28:20;26.83;;;9.52;;
56752;SDS011;42627;42.646;23.642;2023-02-17T05:30:23;18.73;;;9.90;;
56752;SDS011;42627;42.646;23.642;2023-02-17T05:32:33;15.65;;;9.73;;
56752;SDS011;42627;42.646;23.642;2023-02-17T05:34:34;29.27;;;9.88;;
56752;SDS011;42627;42.646;23.642;2023-02-17T05:36:35;27.50;;;10.48;;
56752;SDS011;42627;42.646;23.642;2023-02-17T05:38:37;23.95;;;10.05;;
56752;SDS011;42627;42.646;23.642;2023-02-17T05:40:38;30.63;;;13.40;;
56752;SDS011;42627;42.646;23.642;2023-02-17T05:42:39;20.63;;;10.38;;
56752;SDS011;42627;42.646;23.642;2023-02-17T05:44:40;23.38;;;10.57;;
56752;SDS011;42627;42.646;23.642;2023-02-17T05:46:41;20.88;;;10.23;;
56752;SDS011;42627;42.646;23.642;2023-02-17T05:48:42;18.00;;;7.85;;
56752;SDS011;42627;42.646;23.642;2023-02-17T05:50:44;25.42;;;8.30;;
56752;SDS011;42627;42.646;23.642;2023-02-17T05:52:45;29.98;;;10.95;;
56752;SDS011;42627;42.646;23.642;2023-02-17T05:54:46;44.35;;;16.58;;
56752;SDS011;42627;42.646;23.642;2023-02-17T05:56:47;30.67;;;11.23;;
56752;SDS011;42627;42.646;23.642;2023-02-17T05:58:48;24.88;;;11.80;;
56752;SDS011;42627;42.646;23.642;2023-02-17T06:00:49;37.33;;;8.98;;
56752;SDS011;42627;42.646;23.642;2023-02-17T06:02:50;36.00;;;12.27;;
56752;SDS011;42627;42.646;23.642;2023-02-17T06:04:52;40.45;;;12.57;;
56752;SDS011;42627;42.646;23.642;2023-02-17T06:06:53;27.48;;;12.70;;
56752;SDS011;42627;42.646;23.642;2023-02-17T06:08:54;39.85;;;14.18;;
56752;SDS011;42627;42.646;23.642;2023-02-17T06:10:55;23.60;;;12.43;;
56752;SDS011;42627;42.646;23.642;2023-02-17T06:13:02;41.95;;;16.20;;
56752;SDS011;42627;42.646;23.642;2023-02-17T06:15:03;34.42;;;17.42;;
56752;SDS011;42627;42.646;23.642;2023-02-17T06:17:04;40.53;;;19.92;;
56752;SDS011;42627;42.646;23.642;2023-02-17T06:19:05;53.08;;;19.50;;
56752;SDS011;42627;42.646;23.642;2023-02-17T06:21:06;42.30;;;19.90;;
56752;SDS011;42627;42.646;23.642;2023-02-17T06:23:07;48.47;;;19.75;;
56752;SDS011;42627;42.646;23.642;2023-02-17T06:25:08;45.85;;;19.40;;
56752;SDS011;42627;42.646;23.642;2023-02-17T06:27:09;38.63;;;15.60;;
56752;SDS011;42627;42.646;23.642;2023-02-17T06:29:13;25.77;;;12.48;;
56752;SDS011;42627;42.646;23.642;2023-02-17T06:31:14;23.33;;;11.27;;
56752;SDS011;42627;42.646;23.642;2023-02-17T06:33:15;17.85;;;7.55;;
56752;SDS011;42627;42.646;23.642;2023-02-17T06:35:16;21.30;;;8.02;;
56752;SDS011;42627;42.646;23.642;2023-02-17T06:37:17;15.55;;;7.85;;
56752;SDS011;42627;42.646;23.642;2023-02-17T06:39:20;17.08;;;8.60;;
56752;SDS011;42627;42.646;23.642;2023-02-17T06:41:23;22.20;;;11.40;;
56752;SDS011;42627;42.646;23.642;2023-02-17T06:43:27;43.72;;;18.80;;
56752;SDS011;42627;42.646;23.642;2023-02-17T06:45:28;60.38;;;20.25;;
56752;SDS011;42627;42.646;23.642;2023-02-17T06:47:29;55.85;;;19.70;;
56752;SDS011;42627;42.646;23.642;2023-02-17T06:49:30;45.08;;;16.02;;
56752;SDS011;42627;42.646;23.642;2023-02-17T06:51:32;37.35;;;15.52;;
56752;SDS011;42627;42.646;23.642;2023-02-17T06:53:33;42.95;;;19.13;;
56752;SDS011;42627;42.646;23.642;2023-02-17T06:55:34;32.22;;;16.80;;
56752;SDS011;42627;42.646;23.642;2023-02-17T06:57:36;39.30;;;15.10;;
56752;SDS011;42627;42.646;23.642;2023-02-17T06:59:37;20.63;;;10.85;;
56752;SDS011;42627;42.646;23.642;2023-02-17T07:01:38;19.35;;;8.63;;
56752;SDS011;42627;42.646;23.642;2023-02-17T07:03:39;17.48;;;9.85;;
56752;SDS011;42627;42.646;23.642;2023-02-17T07:05:40;18.92;;;9.27;;
56752;SDS011;42627;42.646;23.642;2023-02-17T07:07:41;25.00;;;11.95;;
56752;SDS011;42627;42.646;23.642;2023-02-17T07:09:45;32.20;;;11.82;;
56752;SDS011;42627;42.646;23.642;2023-02-17T07:11:46;37.20;;;13.45;;
56752;SDS011;42627;42.646;23.642;2023-02-17T07:13:59;41.75;;;16.10;;
56752;SDS011;42627;42.646;23.642;2023-02-17T07:16:12;33.13;;;17.85;;
56752;SDS011;42627;42.646;23.642;2023-02-17T07:18:22;54.53;;;23.35;;
56752;SDS011;42627;42.646;23.642;2023-02-17T07:20:26;47.83;;;21.23;;
56752;SDS011;42627;42.646;23.642;2023-02-17T07:22:29;44.22;;;20.15;;
56752;SDS011;42627;42.646;23.642;2023-02-17T07:24:33;32.70;;;15.48;;
56752;SDS011;42627;42.646;23.642;2023-02-17T07:26:35;24.27;;;12.15;;
56752;SDS011;42627;42.646;23.642;2023-02-17T07:28:37;41.40;;;14.05;;
56752;SDS011;42627;42.646;23.642;2023-02-17T07:30:39;34.60;;;14.15;;
56752;SDS011;42627;42.646;23.642;2023-02-17T07:32:40;31.13;;;11.07;;
56752;SDS011;42627;42.646;23.642;2023-02-17T07:34:44;33.22;;;11.30;;
56752;SDS011;42627;42.646;23.642;2023-02-17T07:36:45;27.45;;;12.32;;
56752;SDS011;42627;42.646;23.642;2023-02-17T07:38:46;19.98;;;8.88;;
56752;SDS011;42627;42.646;23.642;2023-02-17T07:40:47;19.83;;;9.05;;
56752;SDS011;42627;42.646;23.642;2023-02-17T07:42:48;20.15;;;8.38;;
56752;SDS011;42627;42.646;23.642;2023-02-17T07:44:49;24.10;;;10.23;;
56752;SDS011;42627;42.646;23.642;2023-02-17T07:46:50;18.77;;;9.35;;
56752;SDS011;42627;42.646;23.642;2023-02-17T07:49:03;22.02;;;10.07;;
56752;SDS011;42627;42.646;23.642;2023-02-17T07:51:18;29.67;;;9.73;;
56752;SDS011;42627;42.646;23.642;2023-02-17T07:53:20;21.40;;;8.27;;
56752;SDS011;42627;42.646;23.642;2023-02-17T07:55:22;20.00;;;8.38;;
56752;SDS011;42627;42.646;23.642;2023-02-17T07:57:23;20.88;;;6.75;;
56752;SDS011;42627;42.646;23.642;2023-02-17T07:59:26;16.17;;;6.55;;
56752;SDS011;42627;42.646;23.642;2023-02-17T08:01:27;19.77;;;7.13;;
56752;SDS011;42627;42.646;23.642;2023-02-17T08:03:31;18.00;;;6.65;;
56752;SDS011;42627;42.646;23.642;2023-02-17T08:05:32;17.10;;;6.97;;
56752;SDS011;42627;42.646;23.642;2023-02-17T08:09:44;18.48;;;8.20;;
56752;SDS011;42627;42.646;23.642;2023-02-17T08:12:04;15.38;;;6.38;;
56752;SDS011;42627;42.646;23.642;2023-02-17T08:14:25;17.23;;;7.30;;
56752;SDS011;42627;42.646;23.642;2023-02-17T08:16:26;19.55;;;7.70;;
56752;SDS011;42627;42.646;23.642;2023-02-17T08:18:27;20.70;;;6.97;;
56752;SDS011;42627;42.646;23.642;2023-02-17T08:20:28;21.60;;;7.30;;
56752;SDS011;42627;42.646;23.642;2023-02-17T08:22:29;18.25;;;6.32;;
56752;SDS011;42627;42.646;23.642;2023-02-17T08:24:33;15.98;;;7.53;;
56752;SDS011;42627;42.646;23.642;2023-02-17T08:26:37;15.00;;;7.18;;
56752;SDS011;42627;42.646;23.642;2023-02-17T08:28:41;12.73;;;5.93;;
56752;SDS011;42627;42.646;23.642;2023-02-17T08:30:42;18.10;;;6.25;;
56752;SDS011;42627;42.646;23.642;2023-02-17T08:32:43;17.13;;;6.45;;
56752;SDS011;42627;42.646;23.642;2023-02-17T08:34:46;16.27;;;7.15;;
56752;SDS011;42627;42.646;23.642;2023-02-17T08:36:47;17.08;;;7.45;;
56752;SDS011;42627;42.646;23.642;2023-02-17T08:38:48;16.15;;;6.97;;
56752;SDS011;42627;42.646;23.642;2023-02-17T08:40:50;18.25;;;7.22;;
56752;SDS011;42627;42.646;23.642;2023-02-17T08:42:51;20.38;;;7.57;;
56752;SDS011;42627;42.646;23.642;2023-02-17T08:44:52;18.58;;;6.57;;
56752;SDS011;42627;42.646;23.642;2023-02-17T08:46:53;20.05;;;8.18;;
56752;SDS011;42627;42.646;23.642;2023-02-17T08:48:55;17.98;;;7.00;;
56752;SDS011;42627;42.646;23.642;2023-02-17T08:50:56;16.90;;;7.00;;
56752;SDS011;42627;42.646;23.642;2023-02-17T08:52:57;13.85;;;5.63;;
56752;SDS011;42627;42.646;23.642;2023-02-17T08:54:58;20.35;;;6.90;;
56752;SDS011;42627;42.646;23.642;2023-02-17T08:56:59;15.43;;;6.68;;
56752;SDS011;42627;42.646;23.642;2023-02-17T08:59:18;14.35;;;5.72;;
56752;SDS011;42627;42.646;23.642;2023-02-17T09:01:28;13.27;;;5.97;;
56752;SDS011;42627;42.646;23.642;2023-02-17T09:03:35;14.40;;;4.75;;
56752;SDS011;42627;42.646;23.642;2023-02-17T09:05:36;14.88;;;5.80;;
56752;SDS011;42627;42.646;23.642;2023-02-17T09:07:37;11.95;;;5.43;;
56752;SDS011;42627;42.646;23.642;2023-02-17T09:09:39;16.02;;;5.80;;
56752;SDS011;42627;42.646;23.642;2023-02-17T09:11:40;14.05;;;5.90;;
56752;SDS011;42627;42.646;23.642;2023-02-17T09:13:50;15.07;;;6.30;;
56752;SDS011;42627;42.646;23.642;2023-02-17T09:15:51;14.13;;;6.25;;
56752;SDS011;42627;42.646;23.642;2023-02-17T09:17:52;16.55;;;6.60;;
56752;SDS011;42627;42.646;23.642;2023-02-17T09:19:53;14.52;;;6.10;;
56752;SDS011;42627;42.646;23.642;2023-02-17T09:21:54;13.80;;;6.15;;
56752;SDS011;42627;42.646;23.642;2023-02-17T09:23:55;18.17;;;8.85;;
56752;SDS011;42627;42.646;23.642;2023-02-17T09:26:06;15.52;;;6.28;;
56752;SDS011;42627;42.646;23.642;2023-02-17T09:30:19;17.38;;;7.43;;
56752;SDS011;42627;42.646;23.642;2023-02-17T09:32:20;17.13;;;7.00;;
56752;SDS011;42627;42.646;23.642;2023-02-17T09:34:21;16.50;;;6.53;;
56752;SDS011;42627;42.646;23.642;2023-02-17T09:36:26;15.02;;;5.88;;
56752;SDS011;42627;42.646;23.642;2023-02-17T09:38:46;11.80;;;6.15;;
56752;SDS011;42627;42.646;23.642;2023-02-17T09:40:48;14.77;;;6.22;;
56752;SDS011;42627;42.646;23.642;2023-02-17T09:42:58;10.57;;;5.18;;
56752;SDS011;42627;42.646;23.642;2023-02-17T09:45:00;14.25;;;6.07;;
56752;SDS011;42627;42.646;23.642;2023-02-17T09:47:15;19.00;;;6.40;;
56752;SDS011;42627;42.646;23.642;2023-02-17T09:49:35;18.27;;;6.55;;
56752;SDS011;42627;42.646;23.642;2023-02-17T09:51:41;14.50;;;6.97;;
56752;SDS011;42627;42.646;23.642;2023-02-17T09:55:45;16.35;;;6.28;;
56752;SDS011;42627;42.646;23.642;2023-02-17T10:00:11;15.93;;;7.28;;
56752;SDS011;42627;42.646;23.642;2023-02-17T10:02:16;12.75;;;5.82;;
56752;SDS011;42627;42.646;23.642;2023-02-17T10:06:27;13.77;;;6.38;;
56752;SDS011;42627;42.646;23.642;2023-02-17T10:10:53;14.00;;;5.97;;
56752;SDS011;42627;42.646;23.642;2023-02-17T10:13:08;17.02;;;6.60;;
56752;SDS011;42627;42.646;23.642;2023-02-17T10:21:57;18.23;;;6.60;;
56752;SDS011;42627;42.646;23.642;2023-02-17T10:24:02;16.90;;;6.95;;
56752;SDS011;42627;42.646;23.642;2023-02-17T10:28:18;17.40;;;6.60;;
56752;SDS011;42627;42.646;23.642;2023-02-17T10:30:43;13.02;;;5.65;;
56752;SDS011;42627;42.646;23.642;2023-02-17T10:37:04;13.02;;;4.82;;
56752;SDS011;42627;42.646;23.642;2023-02-17T10:39:14;11.88;;;5.80;;
56752;SDS011;42627;42.646;23.642;2023-02-17T10:41:16;12.70;;;5.90;;
56752;SDS011;42627;42.646;23.642;2023-02-17T10:43:40;14.07;;;6.18;;
56752;SDS011;42627;42.646;23.642;2023-02-17T10:45:42;13.05;;;5.35;;
56752;SDS011;42627;42.646;23.642;2023-02-17T10:47:44;11.30;;;3.97;;
56752;SDS011;42627;42.646;23.642;2023-02-17T10:49:46;8.10;;;3.60;;
56752;SDS011;42627;42.646;23.642;2023-02-17T10:51:48;9.85;;;2.78;;
56752;SDS011;42627;42.646;23.642;2023-02-17T10:53:50;7.68;;;2.90;;
56752;SDS011;42627;42.646;23.642;2023-02-17T10:56:00;12.88;;;2.97;;
56752;SDS011;42627;42.646;23.642;2023-02-17T10:58:10;7.72;;;2.88;;
56752;SDS011;42627;42.646;23.642;2023-02-17T11:00:16;8.38;;;2.92;;
56752;SDS011;42627;42.646;23.642;2023-02-17T11:02:21;6.35;;;2.65;;
56752;SDS011;42627;42.646;23.642;2023-02-17T11:04:38;11.57;;;2.92;;
56752;SDS011;42627;42.646;23.642;2023-02-17T11:07:01;5.82;;;2.38;;
56752;SDS011;42627;42.646;23.642;2023-02-17T11:09:06;8.65;;;2.92;;
56752;SDS011;42627;42.646;23.642;2023-02-17T11:11:18;7.32;;;2.95;;
56752;SDS011;42627;42.646;23.642;2023-02-17T11:15:42;6.60;;;2.70;;
56752;SDS011;42627;42.646;23.642;2023-02-17T11:17:44;7.53;;;2.90;;
56752;SDS011;42627;42.646;23.642;2023-02-17T11:19:58;7.88;;;2.92;;
56752;SDS011;42627;42.646;23.642;2023-02-17T11:24:14;12.88;;;4.05;;
56752;SDS011;42627;42.646;23.642;2023-02-17T11:26:16;6.72;;;2.92;;
56752;SDS011;42627;42.646;23.642;2023-02-17T11:28:20;6.60;;;2.50;;
56752;SDS011;42627;42.646;23.642;2023-02-17T11:30:23;7.47;;;3.03;;
56752;SDS011;42627;42.646;23.642;2023-02-17T11:32:29;7.95;;;2.33;;
56752;SDS011;42627;42.646;23.642;2023-02-17T11:34:32;4.47;;;1.85;;
56752;SDS011;42627;42.646;23.642;2023-02-17T11:36:33;5.30;;;2.40;;
56752;SDS011;42627;42.646;23.642;2023-02-17T11:38:53;4.93;;;2.30;;
56752;SDS011;42627;42.646;23.642;2023-02-17T11:41:07;4.40;;;2.28;;
56752;SDS011;42627;42.646;23.642;2023-02-17T11:43:14;5.78;;;2.10;;
56752;SDS011;42627;42.646;23.642;2023-02-17T11:45:19;5.95;;;2.17;;
56752;SDS011;42627;42.646;23.642;2023-02-17T11:47:39;3.85;;;1.75;;
56752;SDS011;42627;42.646;23.642;2023-02-17T11:49:52;6.43;;;2.40;;
56752;SDS011;42627;42.646;23.642;2023-02-17T11:52:34;6.30;;;2.08;;
56752;SDS011;42627;42.646;23.642;2023-02-17T11:58:58;9.60;;;3.45;;
56752;SDS011;42627;42.646;23.642;2023-02-17T12:19:11;5.75;;;2.05;;
56752;SDS011;42627;42.646;23.642;2023-02-17T12:21:27;4.57;;;2.20;;
56752;SDS011;42627;42.646;23.642;2023-02-17T12:36:39;3.83;;;1.70;;
56752;SDS011;42627;42.646;23.642;2023-02-17T12:38:45;4.32;;;1.60;;
56752;SDS011;42627;42.646;23.642;2023-02-17T12:43:05;5.93;;;1.88;;
56752;SDS011;42627;42.646;23.642;2023-02-17T12:49:33;1.98;;;0.90;;
56752;SDS011;42627;42.646;23.642;2023-02-17T12:51:47;8.82;;;1.60;;
56752;SDS011;42627;42.646;23.642;2023-02-17T12:53:54;7.32;;;1.35;;
56752;SDS011;42627;42.646;23.642;2023-02-17T12:55:58;4.95;;;1.63;;
56752;SDS011;42627;42.646;23.642;2023-02-17T12:58:01;4.32;;;1.80;;
56752;SDS011;42627;42.646;23.642;2023-02-17T13:02:33;4.30;;;1.52;;
56752;SDS011;42627;42.646;23.642;2023-02-17T13:04:37;3.80;;;1.73;;
56752;SDS011;42627;42.646;23.642;2023-02-17T13:06:40;4.40;;;2.05;;
56752;SDS011;42627;42.646;23.642;2023-02-17T13:08:49;8.20;;;3.42;;
56752;SDS011;42627;42.646;23.642;2023-02-17T13:11:12;8.43;;;1.70;;
56752;SDS011;42627;42.646;23.642;2023-02-17T13:13:27;8.93;;;3.83;;
56752;SDS011;42627;42.646;23.642;2023-02-17T13:22:20;5.22;;;2.42;;
56752;SDS011;42627;42.646;23.642;2023-02-17T13:24:38;8.25;;;3.75;;
56752;SDS011;42627;42.646;23.642;2023-02-17T13:26:50;20.35;;;8.70;;
56752;SDS011;42627;42.646;23.642;2023-02-17T13:28:51;11.57;;;4.65;;
56752;SDS011;42627;42.646;23.642;2023-02-17T13:33:28;10.63;;;3.90;;
56752;SDS011;42627;42.646;23.642;2023-02-17T13:35:30;5.13;;;1.85;;
56752;SDS011;42627;42.646;23.642;2023-02-17T13:39:36;6.57;;;3.22;;
56752;SDS011;42627;42.646;23.642;2023-02-17T13:46:35;10.27;;;4.85;;
56752;SDS011;42627;42.646;23.642;2023-02-17T13:48:36;3.70;;;2.00;;
56752;SDS011;42627;42.646;23.642;2023-02-17T13:50:42;4.22;;;1.95;;
56752;SDS011;42627;42.646;23.642;2023-02-17T13:52:43;4.78;;;1.90;;
56752;SDS011;42627;42.646;23.642;2023-02-17T13:54:54;4.88;;;2.30;;
56752;SDS011;42627;42.646;23.642;2023-02-17T13:56:56;7.50;;;2.40;;
56752;SDS011;42627;42.646;23.642;2023-02-17T13:59:15;5.03;;;1.65;;
56752;SDS011;42627;42.646;23.642;2023-02-17T14:01:21;4.95;;;2.17;;